Time;durP1;ratioP1;P1;durP2;ratioP2;P2;SDS_P1;SDS_P2;PMS_P1;PMS_P2;Temp;Humidity;BMP_temperature;BMP_pressure;BME280_temperature;BME280_humidity;BME280_pressure;Samples;Min_cycle;Max_cycle;Signal;HPM_P1;HPM_P2
2023/01/16 00:00:14;;;;;;;17.50;6.50;;;;;;;-0.94;97.07;100287.57;1798779;79;21096;-60
2023/01/16 00:02:43;;;;;;;18.48;6.80;;;;;;;-0.92;97.15;100289.64;1718312;82;21147;-58
2023/01/16 00:05:12;;;;;;;14.45;6.80;;;;;;;-0.91;97.21;100277.41;1798511;79;21092;-59
2023/01/16 00:07:41;;;;;;;15.93;7.05;;;;;;;-0.87;97.33;100274.83;1798512;80;21528;-60
2023/01/16 00:10:10;;;;;;;18.25;7.53;;;;;;;-0.85;97.34;100278.24;1718505;83;21182;-60
2023/01/16 00:12:40;;;;;;;15.48;6.80;;;;;;;-0.84;97.34;100270.53;1798912;79;21112;-60
2023/01/16 00:15:10;;;;;;;17.95;7.00;;;;;;;-0.84;97.33;100264.30;1798210;79;21127;-59
2023/01/16 00:17:39;;;;;;;12.53;6.37;;;;;;;-0.84;97.41;100262.96;1798538;79;21131;-59
2023/01/16 00:20:10;;;;;;;15.32;6.80;;;;;;;-0.83;97.42;100266.02;1798698;80;21699;-61
2023/01/16 00:22:41;;;;;;;14.18;6.37;;;;;;;-0.85;97.45;100262.11;1798778;79;21163;-60
2023/01/16 00:25:10;;;;;;;15.38;6.92;;;;;;;-0.84;97.54;100261.61;1798584;80;21115;-64
2023/01/16 00:27:40;;;;;;;13.72;6.25;;;;;;;-0.80;97.59;100271.14;1798278;79;21151;-61
2023/01/16 00:30:10;;;;;;;16.02;7.17;;;;;;;-0.78;97.63;100262.45;1798683;80;21104;-60
2023/01/16 00:32:39;;;;;;;16.17;6.60;;;;;;;-0.78;97.60;100252.54;1735749;82;21127;-59
2023/01/16 00:35:09;;;;;;;15.55;6.72;;;;;;;-0.77;97.63;100256.94;1806079;79;21150;-59
2023/01/16 00:37:38;;;;;;;17.05;6.55;;;;;;;-0.77;97.60;100253.39;1805987;79;21080;-61
2023/01/16 00:40:08;;;;;;;15.63;7.08;;;;;;;-0.77;97.65;100248.02;1805940;79;21159;-60
2023/01/16 00:42:37;;;;;;;15.60;6.12;;;;;;;-0.75;97.73;100254.13;1737424;82;21190;-60
2023/01/16 00:45:07;;;;;;;11.60;5.92;;;;;;;-0.75;97.75;100252.77;1805918;79;21143;-59
2023/01/16 00:47:37;;;;;;;14.35;6.60;;;;;;;-0.73;97.78;100248.12;1806381;79;21194;-60
2023/01/16 00:50:07;;;;;;;11.33;5.78;;;;;;;-0.71;97.75;100240.77;1806216;79;21764;-60
2023/01/16 00:52:36;;;;;;;13.65;6.30;;;;;;;-0.68;97.77;100233.78;1806226;79;21728;-59
2023/01/16 00:55:07;;;;;;;12.50;5.90;;;;;;;-0.68;97.70;100217.64;1806223;79;21115;-60
2023/01/16 00:57:36;;;;;;;11.85;5.75;;;;;;;-0.66;97.66;100203.57;1806011;79;21123;-60
2023/01/16 01:00:08;;;;;;;13.35;5.95;;;;;;;-0.63;97.62;100199.80;1805856;79;21596;-58
2023/01/16 01:02:37;;;;;;;13.08;5.50;;;;;;;-0.61;97.61;100193.30;1737271;82;21581;-61
2023/01/16 01:05:08;;;;;;;15.13;6.42;;;;;;;-0.58;97.49;100194.88;1806005;79;21521;-60
2023/01/16 01:07:37;;;;;;;14.53;6.20;;;;;;;-0.58;97.36;100200.25;1805973;79;21139;-61
2023/01/16 01:10:08;;;;;;;13.30;5.47;;;;;;;-0.56;97.32;100192.91;1805866;79;22139;-60
2023/01/16 05:12:01;;;;;;;8.28;4.60;;;;;;;0.29;99.00;100044.80;1785333;80;28046;-61
2023/01/16 05:14:31;;;;;;;9.68;4.45;;;;;;;0.29;98.79;100038.06;1822557;79;21158;-61
2023/01/16 05:17:00;;;;;;;8.68;4.05;;;;;;;0.30;98.76;100040.25;1822581;79;21561;-60
2023/01/16 05:19:30;;;;;;;6.90;3.72;;;;;;;0.30;98.71;100034.38;1822587;79;21169;-61
2023/01/16 05:22:00;;;;;;;6.53;3.70;;;;;;;0.32;98.68;100036.92;1822560;79;21168;-62
2023/01/16 05:24:28;;;;;;;6.78;3.60;;;;;;;0.34;98.66;100035.44;1822716;79;21161;-62
2023/01/16 05:26:58;;;;;;;7.60;3.55;;;;;;;0.35;98.54;100029.05;1822499;79;22118;-62
2023/01/16 05:29:26;;;;;;;6.97;3.50;;;;;;;0.37;98.46;100025.72;1822552;79;21126;-60
2023/01/16 05:31:55;;;;;;;6.87;3.40;;;;;;;0.38;98.38;100023.38;1822634;79;21134;-59
2023/01/16 05:34:24;;;;;;;5.67;3.20;;;;;;;0.39;98.37;100023.73;1822721;78;21102;-61
2023/01/16 05:36:53;;;;;;;8.10;5.00;;;;;;;0.42;98.35;100022.95;1822909;79;21078;-60
2023/01/16 05:39:22;;;;;;;5.05;3.30;;;;;;;0.44;98.28;100022.31;1822316;79;21121;-61
2023/01/16 05:41:51;;;;;;;5.53;3.10;;;;;;;0.43;98.16;100017.92;1822681;79;21133;-61
2023/01/16 05:44:21;;;;;;;8.53;3.80;;;;;;;0.43;98.07;100019.77;1822531;78;21094;-61
2023/01/16 05:46:50;;;;;;;7.62;3.62;;;;;;;0.42;98.04;100018.91;1822803;79;21189;-61
2023/01/16 05:49:20;;;;;;;7.35;3.80;;;;;;;0.43;97.96;100023.81;1822656;78;21125;-61
2023/01/16 05:51:49;;;;;;;13.85;4.08;;;;;;;0.42;97.92;100027.00;1822748;79;21094;-60
2023/01/16 05:54:17;;;;;;;10.48;4.30;;;;;;;0.43;97.92;100019.27;1822724;79;21137;-61
2023/01/16 05:56:47;;;;;;;8.45;4.60;;;;;;;0.45;97.92;100017.78;1822725;78;21583;-61
2023/01/16 05:59:16;;;;;;;8.18;3.90;;;;;;;0.46;97.89;100017.64;1822435;79;21596;-61
2023/01/16 06:01:45;;;;;;;8.23;4.10;;;;;;;0.47;97.88;100011.75;1822562;78;21118;-61
2023/01/16 06:04:14;;;;;;;8.70;4.30;;;;;;;0.47;97.87;100017.98;1822457;79;21201;-62
2023/01/16 06:06:43;;;;;;;6.50;3.45;;;;;;;0.50;97.92;100020.41;1822755;79;21091;-61
2023/01/16 06:09:13;;;;;;;6.65;3.50;;;;;;;0.53;97.93;100020.61;1822828;79;21150;-61
2023/01/16 06:11:44;;;;;;;8.58;3.90;;;;;;;0.53;97.85;100016.07;1820474;78;21130;-62
2023/01/16 06:14:12;;;;;;;6.78;3.05;;;;;;;0.52;97.83;100014.38;1819805;78;21107;-61
2023/01/16 06:16:43;;;;;;;12.68;4.50;;;;;;;0.53;97.85;100017.42;1819697;79;21118;-62
2023/01/16 06:19:12;;;;;;;8.18;4.20;;;;;;;0.55;97.84;100027.56;1819578;79;21114;-60
2023/01/16 06:21:42;;;;;;;7.83;3.45;;;;;;;0.56;97.84;100033.80;1819703;79;21150;-59
2023/01/16 06:24:12;;;;;;;9.63;4.12;;;;;;;0.56;97.85;100038.70;1819789;78;21181;-60
2023/01/16 06:26:41;;;;;;;12.37;5.50;;;;;;;0.57;97.82;100042.24;1830659;78;21147;-60
2023/01/16 06:29:11;;;;;;;9.63;5.57;;;;;;;0.58;97.86;100042.09;1830285;78;21547;-60
2023/01/16 06:31:41;;;;;;;12.33;6.12;;;;;;;0.60;97.88;100040.11;1765438;81;21168;-62
2023/01/16 06:34:12;;;;;;;8.13;4.17;;;;;;;0.61;97.88;100036.92;1765398;81;21592;-60
2023/01/16 06:36:41;;;;;;;8.28;4.22;;;;;;;0.63;97.86;100036.28;1758331;81;22401;-60
2023/01/16 06:39:12;;;;;;;8.63;4.65;;;;;;;0.63;97.90;100036.28;1765457;81;21120;-63
2023/01/16 06:41:41;;;;;;;11.53;4.83;;;;;;;0.64;97.92;100021.80;1758331;81;21354;-61
2023/01/16 06:44:12;;;;;;;9.95;5.20;;;;;;;0.64;97.87;100028.55;1765181;81;21437;-61
2023/01/16 06:46:40;;;;;;;13.05;5.65;;;;;;;0.66;97.91;100035.17;1758170;81;22255;-62
2023/01/16 06:49:12;;;;;;;10.75;5.30;;;;;;;0.68;97.97;100022.40;1780699;78;21203;-60
2023/01/16 06:51:43;;;;;;;9.43;5.30;;;;;;;0.70;97.94;100020.41;1828250;78;21106;-61
2023/01/16 06:54:13;;;;;;;9.03;4.17;;;;;;;0.70;97.93;100022.61;1830327;78;21127;-61
2023/01/16 06:56:41;;;;;;;11.57;5.35;;;;;;;0.72;97.94;100021.12;1830631;78;21147;-61
2023/01/16 06:59:11;;;;;;;8.23;4.33;;;;;;;0.72;97.95;100011.68;1830296;78;21100;-61
2023/01/16 07:01:40;;;;;;;7.35;3.92;;;;;;;0.73;97.96;100019.63;1803008;78;21170;-62
2023/01/16 07:04:09;;;;;;;11.83;4.80;;;;;;;0.73;97.95;100015.58;1830255;78;21202;-61
2023/01/16 07:06:41;;;;;;;5.85;3.45;;;;;;;0.74;98.00;100015.94;1802625;78;21131;-63
2023/01/16 07:09:11;;;;;;;8.03;4.58;;;;;;;0.75;98.02;100015.44;1803524;78;21566;-61
2023/01/16 07:11:40;;;;;;;8.60;4.28;;;;;;;0.75;98.01;100018.14;1826433;78;21096;-63
2023/01/16 07:22:34;;;;;;;8.40;4.40;;;;;;;0.79;98.11;100009.61;1824517;78;21108;-63
2023/01/16 07:25:09;;;;;;;12.30;5.20;;;;;;;0.81;98.14;100007.63;1824269;79;21574;-64
2023/01/16 07:27:38;;;;;;;10.98;4.83;;;;;;;0.82;98.11;100003.93;1824051;79;21103;-64
2023/01/16 07:30:09;;;;;;;11.57;5.55;;;;;;;0.81;98.09;100000.88;1824213;79;21167;-64
2023/01/16 07:32:39;;;;;;;14.03;5.58;;;;;;;0.82;98.19;99997.69;1792938;78;21120;-63
2023/01/16 07:35:09;;;;;;;10.72;5.95;;;;;;;0.83;98.28;99997.54;1824160;79;21531;-64
2023/01/16 07:37:39;;;;;;;15.55;7.67;;;;;;;0.86;98.37;99999.09;1824213;78;21108;-65
2023/01/16 07:40:10;;;;;;;17.12;7.47;;;;;;;0.87;98.37;99997.59;1824430;78;21664;-64
2023/01/16 07:42:40;;;;;;;16.12;7.10;;;;;;;0.90;98.42;100000.50;1824405;79;21151;-64
2023/01/16 07:45:11;;;;;;;17.85;7.42;;;;;;;0.90;98.43;99996.45;1824316;79;21096;-65
2023/01/16 07:47:40;;;;;;;17.70;7.70;;;;;;;0.91;98.46;99994.11;1824272;78;21167;-64
2023/01/16 07:50:10;;;;;;;16.02;7.08;;;;;;;0.91;98.48;99994.96;1824569;79;21198;-65
2023/01/16 07:52:51;;;;;;;19.87;7.65;;;;;;;0.92;98.48;99998.51;1705595;84;21169;-64
2023/01/16 07:55:20;;;;;;;13.43;7.15;;;;;;;0.92;98.52;99998.51;1705246;84;21200;-64
2023/01/16 07:57:50;;;;;;;16.25;7.58;;;;;;;0.92;98.48;99993.97;1705057;83;21188;-72
2023/01/16 08:00:22;;;;;;;17.37;7.28;;;;;;;0.94;98.52;99993.32;1674033;84;21185;-64
2023/01/16 08:02:50;;;;;;;18.23;8.20;;;;;;;0.92;98.53;99993.97;1705171;83;21140;-64
2023/01/16 08:05:19;;;;;;;19.35;7.60;;;;;;;0.92;98.51;100000.71;1705109;84;21344;-64
2023/01/16 08:07:49;;;;;;;17.62;7.20;;;;;;;0.95;98.57;100002.27;1705208;84;21168;-65
2023/01/16 08:10:20;;;;;;;19.00;8.45;;;;;;;0.95;98.58;100005.81;1699055;83;21608;-66
2023/01/16 08:12:50;;;;;;;18.25;8.50;;;;;;;0.96;98.65;100001.27;1705868;84;21521;-64
2023/01/16 08:15:19;;;;;;;18.60;8.40;;;;;;;0.96;98.69;99997.22;1705192;84;21181;-64
2023/01/16 08:17:48;;;;;;;18.00;8.10;;;;;;;0.99;98.74;99987.98;1705377;84;21162;-65
2023/01/16 08:20:18;;;;;;;21.77;8.53;;;;;;;1.02;98.79;99983.15;1705375;84;21205;-64
2023/01/16 08:22:49;;;;;;;22.87;9.30;;;;;;;1.05;98.84;99990.09;1705379;83;21544;-64
2023/01/16 08:25:21;;;;;;;21.77;9.73;;;;;;;1.07;98.79;99980.86;1676449;84;21213;-63
2023/01/16 08:27:50;;;;;;;18.77;9.48;;;;;;;1.08;98.83;99977.16;1705353;84;21157;-64
2023/01/16 08:30:22;;;;;;;22.10;10.40;;;;;;;1.10;98.79;99981.91;1705219;84;21572;-66
2023/01/16 08:33:00;;;;;;;17.42;8.83;;;;;;;1.12;98.80;99981.77;1705377;84;21169;-62
2023/01/16 08:35:32;;;;;;;16.93;8.45;;;;;;;1.11;98.81;99980.06;1705348;84;21185;-65
2023/01/16 08:38:01;;;;;;;19.25;9.88;;;;;;;1.11;98.84;99978.72;1705418;83;21161;-63
2023/01/16 08:40:30;;;;;;;24.65;10.53;;;;;;;1.14;98.90;99986.02;1705097;84;21549;-63
2023/01/16 08:51:25;;;;;;;26.27;13.18;;;;;;;1.17;98.88;99966.84;1644761;86;21186;-65
2023/01/16 08:53:56;;;;;;;19.87;9.10;;;;;;;1.18;98.88;99971.23;1654961;85;21142;-66
2023/01/16 08:56:27;;;;;;;14.80;8.35;;;;;;;1.21;98.97;99975.48;1675822;86;21162;-65
2023/01/16 08:58:57;;;;;;;25.27;9.60;;;;;;;1.22;98.96;99969.09;1675630;86;21107;-65
2023/01/16 09:01:26;;;;;;;18.32;8.85;;;;;;;1.23;98.96;99974.83;1675499;85;21160;-65
2023/01/16 09:03:55;;;;;;;17.12;9.48;;;;;;;1.23;98.98;99974.33;1655745;86;21178;-66
2023/01/16 09:06:25;;;;;;;19.75;10.38;;;;;;;1.24;98.99;99969.29;1675516;86;21138;-67
2023/01/16 09:08:54;;;;;;;17.23;8.15;;;;;;;1.28;99.03;99975.23;1675691;86;21198;-66
2023/01/16 09:14:00;;;;;;;17.00;9.00;;;;;;;1.29;98.98;99964.80;1653297;85;21106;-64
2023/01/16 09:16:26;;;;;;;18.20;8.98;;;;;;;1.31;98.94;99958.78;1675324;85;21188;-65
2023/01/16 09:18:55;;;;;;;19.25;9.83;;;;;;;1.33;98.98;99956.78;1675471;86;21197;-65
2023/01/16 09:21:24;;;;;;;17.75;9.53;;;;;;;1.34;98.98;99953.08;1675547;84;21146;-65
2023/01/16 09:23:54;;;;;;;15.05;8.25;;;;;;;1.36;98.98;99958.33;1675499;84;21125;-64
2023/01/16 09:26:24;;;;;;;17.77;8.25;;;;;;;1.36;98.98;99952.44;1655859;86;21194;-64
2023/01/16 09:28:53;;;;;;;18.77;9.13;;;;;;;1.37;98.99;99947.89;1675659;85;21526;-63
2023/01/16 09:31:22;;;;;;;16.65;8.48;;;;;;;1.36;98.95;99941.64;1675578;86;21731;-64
2023/01/16 09:33:52;;;;;;;16.12;8.03;;;;;;;1.36;98.96;99936.23;1656218;85;21238;-64
2023/01/16 09:36:22;;;;;;;20.57;10.15;;;;;;;1.37;99.00;99933.89;1656386;86;21201;-64
2023/01/16 09:38:53;;;;;;;19.07;8.63;;;;;;;1.37;98.99;99929.84;1675432;86;21165;-64
2023/01/16 09:44:14;;;;;;;20.23;9.90;;;;;;;1.39;98.98;99923.80;1675346;85;21306;-63
2023/01/16 09:46:48;;;;;;;22.42;9.58;;;;;;;1.38;98.99;99919.39;1625176;88;21233;-63
2023/01/16 09:49:30;;;;;;;20.30;9.70;;;;;;;1.41;99.09;99917.74;1625285;88;21181;-61
2023/01/16 10:00:36;;;;;;;28.20;10.53;;;;;;;1.54;99.34;99909.28;1632836;88;21186;-63
2023/01/16 10:03:07;;;;;;;24.95;12.28;;;;;;;1.54;99.35;99908.78;1632822;88;21189;-62
2023/01/16 10:05:44;;;;;;;23.27;10.30;;;;;;;1.55;99.31;99901.53;1632702;88;21202;-63
2023/01/16 10:08:26;;;;;;;24.98;11.25;;;;;;;1.52;99.29;99898.63;1632382;87;21185;-62
2023/01/16 10:11:14;;;;;;;25.30;11.33;;;;;;;1.51;99.28;99898.29;1652709;84;21138;-63
2023/01/16 10:14:05;;;;;;;24.65;11.63;;;;;;;1.54;99.37;99895.78;1697581;84;21134;-64
2023/01/16 10:16:56;;;;;;;26.17;11.65;;;;;;;1.52;99.42;99890.53;1684140;84;21110;-61
2023/01/16 10:20:13;;;;;;;29.37;11.95;;;;;;;1.50;99.45;99882.24;1665773;84;21485;-59
2023/01/16 10:23:15;;;;;;;22.20;10.13;;;;;;;1.49;99.54;99875.99;1579804;89;21265;-61
2023/01/16 10:26:18;;;;;;;23.57;10.70;;;;;;;1.47;99.63;99868.55;1547786;91;21173;-60
2023/01/16 10:29:35;;;;;;;19.37;9.30;;;;;;;1.46;99.75;99870.05;1579530;89;21683;-62
2023/01/16 10:32:29;;;;;;;24.77;10.20;;;;;;;1.46;99.90;99872.25;1573605;89;21243;-58
2023/01/16 10:35:23;;;;;;;25.95;10.93;;;;;;;1.46;100.00;99866.85;1553251;91;21225;-59
2023/01/16 10:37:53;;;;;;;23.50;10.05;;;;;;;1.47;100.00;99864.50;1579242;91;21603;-61
2023/01/16 10:40:26;;;;;;;21.00;9.73;;;;;;;1.48;100.00;99864.00;1583578;90;21208;-59
2023/01/16 10:51:37;;;;;;;19.05;9.03;;;;;;;1.53;100.00;99853.59;1715425;83;21118;-59
2023/01/16 10:54:09;;;;;;;16.17;8.10;;;;;;;1.56;100.00;99858.69;1722376;83;21169;-60
2023/01/16 10:56:42;;;;;;;16.93;8.05;;;;;;;1.58;100.00;99856.68;1722364;83;21249;-59
2023/01/16 10:59:12;;;;;;;17.27;8.68;;;;;;;1.59;100.00;99855.67;1630147;88;21285;-59
2023/01/16 11:01:43;;;;;;;14.30;7.58;;;;;;;1.61;100.00;99864.97;1630262;88;21130;-60
2023/01/16 11:04:18;;;;;;;20.20;7.95;;;;;;;1.62;100.00;99861.27;1630324;88;21174;-59
2023/01/16 11:06:51;;;;;;;17.32;8.43;;;;;;;1.62;100.00;99862.12;1630587;88;21269;-57
2023/01/16 11:09:21;;;;;;;16.75;8.25;;;;;;;1.64;100.00;99864.66;1567940;88;21147;-59
2023/01/16 11:20:34;;;;;;;21.65;9.98;;;;;;;1.63;100.00;99848.12;1722628;82;21154;-60
2023/01/16 11:23:15;;;;;;;29.70;12.43;;;;;;;1.63;100.00;99844.07;1722362;83;21138;-59
2023/01/16 11:25:49;;;;;;;24.18;10.78;;;;;;;1.64;100.00;99843.06;1722419;83;21315;-60
2023/01/16 11:28:26;;;;;;;35.35;16.42;;;;;;;1.66;100.00;99852.70;1722229;83;21153;-59
2023/01/16 11:31:02;;;;;;;37.42;17.50;;;;;;;1.68;100.00;99851.20;1722366;82;21178;-60
2023/01/16 11:33:44;;;;;;;34.23;16.10;;;;;;;1.68;100.00;99847.16;1722441;83;21162;-59
2023/01/16 11:36:19;;;;;;;28.98;13.98;;;;;;;1.70;100.00;99847.84;1722554;82;21150;-58
2023/01/16 11:38:51;;;;;;;34.95;17.32;;;;;;;1.70;100.00;99847.34;1722410;83;21153;-58
2023/01/16 11:41:39;;;;;;;17.82;9.15;;;;;;;1.72;100.00;99840.44;1695110;83;21186;-59
2023/01/16 11:47:06;;;;;;;19.30;9.80;;;;;;;1.74;100.00;99842.48;1722350;83;20529;-61
2023/01/16 11:49:42;;;;;;;28.75;15.03;;;;;;;1.77;100.00;99843.02;1694351;83;21130;-61
2023/01/16 11:52:29;;;;;;;20.37;9.03;;;;;;;1.81;100.00;99831.41;1692689;84;21299;-61
2023/01/16 11:55:05;;;;;;;19.10;9.55;;;;;;;1.81;100.00;99832.25;1714538;84;21574;-60
2023/01/16 11:57:45;;;;;;;19.65;9.78;;;;;;;1.82;100.00;99833.10;1714793;84;21122;-60
2023/01/16 12:00:47;;;;;;;26.57;13.38;;;;;;;1.80;100.00;99827.01;1683718;84;21198;-60
2023/01/16 12:04:06;;;;;;;35.98;15.75;;;;;;;1.81;100.00;99825.50;1714633;83;21163;-57
2023/01/16 12:07:03;;;;;;;22.27;10.72;;;;;;;1.83;100.00;99827.55;1711981;84;21570;-58
2023/01/16 12:10:00;;;;;;;24.63;12.00;;;;;;;1.85;100.00;99828.23;1714641;83;21169;-61
2023/01/16 12:15:35;;;;;;;20.97;10.45;;;;;;;1.91;100.00;99822.21;1714674;83;21174;-61
2023/01/16 12:18:28;;;;;;;24.40;11.50;;;;;;;1.97;100.00;99827.52;1709280;84;21620;-60
2023/01/16 12:21:03;;;;;;;26.33;11.80;;;;;;;1.96;100.00;99823.63;1714678;84;21198;-62
2023/01/16 12:24:02;;;;;;;28.75;13.50;;;;;;;1.93;100.00;99818.00;1714630;84;21126;-60
2023/01/16 12:29:57;;;;;;;29.05;14.78;;;;;;;1.91;100.00;99814.61;1733014;83;21194;-62
2023/01/16 12:33:11;;;;;;;35.10;15.88;;;;;;;1.90;100.00;99810.21;1705829;83;21158;-61
2023/01/16 12:35:59;;;;;;;30.57;14.00;;;;;;;1.91;100.00;99813.26;1734625;83;21209;-60
2023/01/16 12:38:40;;;;;;;32.15;15.13;;;;;;;1.89;100.00;99810.71;1734718;82;21154;-60
2023/01/16 12:44:39;;;;;;;33.80;15.72;;;;;;;1.90;100.00;99816.97;1734570;83;21854;-62
2023/01/16 12:47:52;;;;;;;32.10;15.93;;;;;;;1.89;100.00;99808.52;1734649;83;21154;-61
2023/01/16 12:50:45;;;;;;;31.55;13.85;;;;;;;1.87;100.00;99811.37;1734607;83;21202;-59
2023/01/16 12:54:09;;;;;;;40.73;18.73;;;;;;;1.87;100.00;99803.27;1728962;81;21136;-63
2023/01/16 12:57:11;;;;;;;37.10;16.17;;;;;;;1.87;100.00;99803.77;1698492;83;21129;-60
2023/01/16 13:00:14;;;;;;;30.77;13.98;;;;;;;1.85;100.00;99799.03;1698001;83;21129;-62
2023/01/16 13:03:01;;;;;;;39.13;16.48;;;;;;;1.85;100.00;99793.63;1692729;83;21220;-58
2023/01/16 13:05:34;;;;;;;35.80;15.13;;;;;;;1.84;100.00;99790.58;1721787;83;21130;-61
2023/01/16 13:08:17;;;;;;;33.35;13.93;;;;;;;1.83;100.00;99784.84;1724174;83;21157;-59
2023/01/16 13:13:59;;;;;;;30.05;14.55;;;;;;;1.86;100.00;99785.88;1724272;83;21137;-60
2023/01/16 13:16:38;;;;;;;28.92;14.07;;;;;;;1.84;100.00;99790.58;1694336;83;21149;-63
2023/01/16 13:19:30;;;;;;;39.58;18.90;;;;;;;1.84;100.00;99792.78;1724388;83;21620;-62
2023/01/16 13:22:12;;;;;;;29.75;13.15;;;;;;;1.85;100.00;99799.03;1724516;83;21161;-61
2023/01/16 13:25:03;;;;;;;30.23;13.83;;;;;;;1.86;100.00;99794.82;1711840;83;21216;-62
2023/01/16 13:27:47;;;;;;;30.12;14.68;;;;;;;1.85;100.00;99790.92;1724212;83;21266;-58
2023/01/16 13:30:19;;;;;;;26.57;12.95;;;;;;;1.84;100.00;99793.28;1718505;83;21150;-59
2023/01/16 13:33:07;;;;;;;25.48;12.30;;;;;;;1.84;100.00;99795.98;1698135;83;21165;-59
2023/01/16 13:36:17;;;;;;;25.80;12.45;;;;;;;1.85;100.00;99785.52;1724284;83;21173;-63
2023/01/16 13:38:59;;;;;;;32.30;13.50;;;;;;;1.84;100.00;99786.53;1698070;83;21579;-62
2023/01/16 13:41:32;;;;;;;26.48;13.48;;;;;;;1.83;100.00;99780.78;1724220;83;21106;-63
2023/01/16 13:46:56;;;;;;;27.82;12.80;;;;;;;1.83;100.00;99770.83;1762265;81;21168;-63
2023/01/16 13:49:25;;;;;;;24.92;12.45;;;;;;;1.83;100.00;99760.52;1700985;84;21178;-63
2023/01/16 13:51:55;;;;;;;26.85;12.30;;;;;;;1.82;100.00;99766.93;1695459;81;21180;-62
2023/01/16 13:54:31;;;;;;;26.75;12.43;;;;;;;1.82;100.00;99758.33;1765016;81;21149;-74
2023/01/16 13:57:05;;;;;;;26.48;11.40;;;;;;;1.82;100.00;99758.33;1736883;82;21133;-63
2023/01/16 13:59:46;;;;;;;21.02;10.70;;;;;;;1.83;100.00;99750.57;1737299;82;21544;-64
2023/01/16 14:02:39;;;;;;;21.97;11.05;;;;;;;1.84;100.00;99755.47;1668042;85;21238;-64
2023/01/16 14:05:23;;;;;;;22.75;11.15;;;;;;;1.85;100.00;99753.96;1662883;85;21170;-62
2023/01/16 14:11:08;;;;;;;26.33;13.22;;;;;;;1.87;100.00;99750.59;1676924;85;21257;-63
2023/01/16 14:13:39;;;;;;;21.55;11.25;;;;;;;1.88;100.00;99756.84;1677366;85;21558;-64
2023/01/16 14:16:38;;;;;;;25.90;12.30;;;;;;;1.90;100.00;99751.63;1650680;85;21221;-62
2023/01/16 14:19:21;;;;;;;23.15;11.00;;;;;;;1.91;100.00;99758.73;1733490;82;21120;-64
2023/01/16 14:24:00;;;;;;;26.35;11.28;;;;;;;1.92;100.00;99752.83;1737225;82;21196;-63
2023/01/16 14:24:41;;;;;;;25.90;12.30;;;;;;;1.93;100.00;99745.56;1732142;82;21172;-61
2023/01/16 14:27:13;;;;;;;22.20;11.60;;;;;;;1.92;100.00;99746.07;1737079;82;21196;-63
2023/01/16 14:29:59;;;;;;;23.73;11.22;;;;;;;1.93;100.00;99748.27;1722735;82;21663;-63
2023/01/16 14:32:30;;;;;;;24.43;11.50;;;;;;;1.93;100.00;99751.81;1649562;85;21166;-63
2023/01/16 14:35:06;;;;;;;21.68;11.22;;;;;;;1.97;100.00;99746.98;1693717;85;21167;-63
2023/01/16 14:37:42;;;;;;;24.25;11.12;;;;;;;1.98;100.00;99745.47;1693885;85;21206;-63
2023/01/16 14:55:12;;;;;;;28.02;13.08;;;;;;;1.98;100.00;99745.47;1670204;85;21563;-64
2023/01/16 14:55:51;;;;;;;26.45;12.65;;;;;;;2.02;100.00;99736.55;1661716;86;21166;-65
2023/01/16 14:58:35;;;;;;;28.40;12.45;;;;;;;2.00;100.00;99739.41;1661666;86;21177;-64
2023/01/16 15:03:55;;;;;;;25.72;11.12;;;;;;;2.00;100.00;99736.70;1650274;87;21229;-64
2023/01/16 15:06:29;;;;;;;24.72;11.70;;;;;;;1.99;100.00;99735.51;1661724;86;21189;-66
2023/01/16 15:09:00;;;;;;;24.72;12.23;;;;;;;1.99;100.00;99732.30;1661502;86;21230;-65
2023/01/16 15:11:33;;;;;;;25.45;13.00;;;;;;;1.98;100.00;99735.17;1661664;86;21193;-63
2023/01/16 15:23:07;;;;;;;18.60;9.88;;;;;;;1.94;100.00;99735.95;1581027;90;21181;-64
2023/01/16 15:25:59;;;;;;;20.08;10.70;;;;;;;1.89;100.00;99737.78;1563744;91;21228;-62
2023/01/16 15:28:40;;;;;;;21.65;11.25;;;;;;;1.89;100.00;99739.13;1578013;90;21649;-63
2023/01/16 15:31:35;;;;;;;30.10;12.10;;;;;;;1.89;100.00;99735.58;1586101;90;21200;-62
2023/01/16 15:34:21;;;;;;;23.30;11.50;;;;;;;1.96;100.00;99749.34;1847921;77;22129;-64
2023/01/16 15:36:52;;;;;;;23.50;11.75;;;;;;;1.87;100.00;99747.05;1724914;82;21134;-65
2023/01/16 15:39:42;;;;;;;25.20;11.33;;;;;;;1.85;100.00;99745.86;1771853;81;21123;-64
2023/01/16 15:48:17;;;;;;;23.80;11.75;;;;;;;1.86;100.00;99741.30;1771914;81;21118;-63
2023/01/16 15:50:59;;;;;;;22.98;11.50;;;;;;;1.87;100.00;99745.70;1753874;82;21115;-64
2023/01/16 15:53:48;;;;;;;20.32;10.78;;;;;;;1.88;100.00;99746.05;1724061;83;21169;-63
2023/01/16 15:56:44;;;;;;;22.32;10.88;;;;;;;1.87;100.00;99734.89;1753992;82;21154;-63
2023/01/16 15:59:33;;;;;;;22.27;10.63;;;;;;;1.90;100.00;99729.17;1716333;82;21221;-63
2023/01/16 16:02:20;;;;;;;21.12;10.30;;;;;;;1.91;100.00;99729.52;1724086;83;21141;-63
2023/01/16 16:04:53;;;;;;;22.62;10.43;;;;;;;1.91;100.00;99727.66;1695071;83;21149;-65
2023/01/16 16:07:23;;;;;;;21.37;9.85;;;;;;;1.90;100.00;99726.48;1723955;83;21182;-63
2023/01/16 16:09:57;;;;;;;20.57;10.50;;;;;;;1.90;100.00;99717.02;1723854;83;21181;-64
2023/01/16 16:12:26;;;;;;;22.62;10.38;;;;;;;1.89;100.00;99712.13;1723880;83;21213;-63
2023/01/16 16:18:19;;;;;;;34.45;13.88;;;;;;;1.90;100.00;99708.92;1689441;84;21165;-63
2023/01/16 16:20:49;;;;;;;30.82;15.48;;;;;;;1.91;100.00;99707.41;1638199;86;21143;-64
2023/01/16 16:23:25;;;;;;;57.93;27.40;;;;;;;1.96;100.00;99700.20;1721596;83;21162;-64
2023/01/16 16:26:04;;;;;;;25.75;12.33;;;;;;;1.97;100.00;99707.30;1721684;83;21577;-64
2023/01/16 16:28:38;;;;;;;29.65;12.43;;;;;;;1.98;100.00;99696.84;1721523;83;21585;-62
2023/01/16 16:31:34;;;;;;;28.70;11.85;;;;;;;1.98;100.00;99698.20;1697872;83;21671;-63
2023/01/16 16:34:26;;;;;;;23.75;11.53;;;;;;;1.98;100.00;99697.34;1769304;80;21260;-65
2023/01/16 16:36:58;;;;;;;23.12;10.90;;;;;;;1.98;100.00;99690.59;1751802;81;21186;-63
2023/01/16 16:40:09;;;;;;;26.68;12.50;;;;;;;1.99;100.00;99685.53;1688737;84;21218;-64
2023/01/16 16:42:52;;;;;;;25.35;13.00;;;;;;;1.98;100.00;99683.34;1774855;81;21115;-65
2023/01/16 16:45:33;;;;;;;28.32;12.50;;;;;;;1.98;100.00;99684.69;1708414;84;21135;-64
2023/01/16 16:48:27;;;;;;;29.10;13.18;;;;;;;1.96;100.00;99689.41;1774344;79;21548;-63
2023/01/16 16:51:10;;;;;;;28.07;12.37;;;;;;;1.97;100.00;99702.41;1752056;81;21148;-64
2023/01/16 16:53:46;;;;;;;23.05;10.90;;;;;;;1.95;100.00;99688.18;1774831;81;21584;-64
2023/01/16 16:56:29;;;;;;;19.93;10.30;;;;;;;1.95;100.00;99686.36;1775371;80;21148;-64
2023/01/16 16:59:03;;;;;;;27.35;12.28;;;;;;;1.95;100.00;99686.83;1758533;80;21112;-65
2023/01/16 17:01:36;;;;;;;31.70;13.45;;;;;;;1.94;100.00;99677.03;1715569;83;21155;-64
2023/01/16 17:04:06;;;;;;;30.32;13.78;;;;;;;1.94;100.00;99676.52;1754795;80;21115;-62
2023/01/16 17:06:37;;;;;;;34.88;13.50;;;;;;;1.97;100.00;99669.98;1790023;79;21142;-64
2023/01/16 17:09:31;;;;;;;34.73;14.18;;;;;;;1.99;100.00;99667.97;1671377;82;21129;-62
2023/01/16 17:12:17;;;;;;;35.08;14.28;;;;;;;2.00;100.00;99663.77;1670085;85;21187;-64
2023/01/16 17:14:47;;;;;;;35.08;13.32;;;;;;;2.04;100.00;99665.13;1691946;84;21134;-64
2023/01/16 17:17:18;;;;;;;34.18;13.95;;;;;;;2.03;100.00;99656.69;1692118;84;21127;-64
2023/01/16 17:19:47;;;;;;;33.08;15.48;;;;;;;2.03;100.00;99658.03;1692027;85;21166;-64
2023/01/16 17:22:18;;;;;;;37.15;15.78;;;;;;;2.04;100.00;99661.08;1691737;85;21177;-63
2023/01/16 17:24:50;;;;;;;34.23;14.63;;;;;;;2.04;100.00;99653.48;1692199;84;21142;-66
2023/01/16 17:27:20;;;;;;;34.33;15.48;;;;;;;2.05;100.00;99656.02;1692183;84;21106;-65
2023/01/16 17:29:53;;;;;;;36.30;15.83;;;;;;;2.05;100.00;99653.31;1691828;85;21676;-65
2023/01/16 17:32:29;;;;;;;44.70;16.95;;;;;;;2.06;100.00;99652.31;1691980;85;21182;-64
2023/01/16 17:34:59;;;;;;;44.45;16.40;;;;;;;2.08;100.00;99653.50;1670791;85;21174;-65
2023/01/16 17:37:28;;;;;;;38.78;16.65;;;;;;;2.08;100.00;99645.39;1691964;85;21119;-64
2023/01/16 17:40:00;;;;;;;35.90;15.45;;;;;;;2.09;100.00;99639.83;1691969;84;21551;-64
2023/01/16 17:45:53;;;;;;;37.38;16.42;;;;;;;2.09;100.00;99649.28;1614105;89;21260;-65
2023/01/16 17:48:25;;;;;;;41.60;16.00;;;;;;;2.11;100.00;99636.45;1612205;89;21596;-64
2023/01/16 17:50:58;;;;;;;37.20;16.02;;;;;;;2.13;100.00;99642.55;1612415;89;21165;-64